sensor_id;sensor_type;location;lat;lon;timestamp;temperature;humidity
11093;DHT22;5600;50.864;6.102;2022-12-16T00:01:39;-8.30;99.90
11093;DHT22;5600;50.864;6.102;2022-12-16T00:04:40;-8.30;99.90
11093;DHT22;5600;50.864;6.102;2022-12-16T00:07:40;-8.30;99.90
11093;DHT22;5600;50.864;6.102;2022-12-16T00:10:41;-8.20;99.90
11093;DHT22;5600;50.864;6.102;2022-12-16T00:13:53;-8.20;99.90
11093;DHT22;5600;50.864;6.102;2022-12-16T00:16:54;-8.20;99.90
11093;DHT22;5600;50.864;6.102;2022-12-16T00:19:55;-8.50;99.90
11093;DHT22;5600;50.864;6.102;2022-12-16T00:22:55;-8.20;99.90
11093;DHT22;5600;50.864;6.102;2022-12-16T00:25:56;-8.20;99.90
11093;DHT22;5600;50.864;6.102;2022-12-16T00:28:57;-8.20;99.90
11093;DHT22;5600;50.864;6.102;2022-12-16T00:31:57;-8.20;99.90
11093;DHT22;5600;50.864;6.102;2022-12-16T00:34:58;-8.30;99.90
11093;DHT22;5600;50.864;6.102;2022-12-16T00:37:59;-8.30;99.90
11093;DHT22;5600;50.864;6.102;2022-12-16T00:41:00;-8.30;99.90
11093;DHT22;5600;50.864;6.102;2022-12-16T00:44:02;-8.40;99.90
11093;DHT22;5600;50.864;6.102;2022-12-16T00:47:03;-8.30;99.90
11093;DHT22;5600;50.864;6.102;2022-12-16T00:50:04;-8.30;99.90
11093;DHT22;5600;50.864;6.102;2022-12-16T00:53:05;-8.30;99.90
11093;DHT22;5600;50.864;6.102;2022-12-16T00:56:08;-8.20;99.90
11093;DHT22;5600;50.864;6.102;2022-12-16T00:59:09;-8.20;99.90
11093;DHT22;5600;50.864;6.102;2022-12-16T01:02:10;-8.20;99.90
11093;DHT22;5600;50.864;6.102;2022-12-16T01:05:14;-8.30;99.90
11093;DHT22;5600;50.864;6.102;2022-12-16T01:08:15;-8.30;99.90
11093;DHT22;5600;50.864;6.102;2022-12-16T01:11:18;-8.40;99.90
11093;DHT22;5600;50.864;6.102;2022-12-16T01:14:19;-8.50;99.90
11093;DHT22;5600;50.864;6.102;2022-12-16T01:17:19;-8.50;99.90
11093;DHT22;5600;50.864;6.102;2022-12-16T01:20:20;-7.90;99.90
11093;DHT22;5600;50.864;6.102;2022-12-16T01:23:21;-8.50;99.90
11093;DHT22;5600;50.864;6.102;2022-12-16T01:26:22;-8.50;99.90
11093;DHT22;5600;50.864;6.102;2022-12-16T01:29:22;-8.40;99.90
11093;DHT22;5600;50.864;6.102;2022-12-16T01:32:23;-8.30;99.90
11093;DHT22;5600;50.864;6.102;2022-12-16T01:35:24;-8.30;99.90
11093;DHT22;5600;50.864;6.102;2022-12-16T01:38:24;-8.30;99.90
11093;DHT22;5600;50.864;6.102;2022-12-16T01:41:25;-8.30;99.90
11093;DHT22;5600;50.864;6.102;2022-12-16T01:44:26;-8.40;99.90
11093;DHT22;5600;50.864;6.102;2022-12-16T01:47:32;-8.50;99.90
11093;DHT22;5600;50.864;6.102;2022-12-16T01:50:32;-8.50;99.90
11093;DHT22;5600;50.864;6.102;2022-12-16T01:53:35;-8.60;99.90
11093;DHT22;5600;50.864;6.102;2022-12-16T01:56:41;-8.60;99.90
11093;DHT22;5600;50.864;6.102;2022-12-16T01:59:46;-8.60;99.90
11093;DHT22;5600;50.864;6.102;2022-12-16T02:02:48;-8.60;99.90
11093;DHT22;5600;50.864;6.102;2022-12-16T02:05:51;-8.60;99.90
11093;DHT22;5600;50.864;6.102;2022-12-16T02:08:55;-8.50;99.90
11093;DHT22;5600;50.864;6.102;2022-12-16T02:18:53;-8.50;99.90
11093;DHT22;5600;50.864;6.102;2022-12-16T02:28:33;-8.50;99.90
11093;DHT22;5600;50.864;6.102;2022-12-16T02:31:57;-8.60;99.90
11093;DHT22;5600;50.864;6.102;2022-12-16T02:38:48;-8.60;99.90
11093;DHT22;5600;50.864;6.102;2022-12-16T02:45:17;-8.70;99.90
11093;DHT22;5600;50.864;6.102;2022-12-16T02:48:19;-8.60;99.90
11093;DHT22;5600;50.864;6.102;2022-12-16T02:51:22;-8.60;99.90
11093;DHT22;5600;50.864;6.102;2022-12-16T02:54:23;-8.50;99.90
11093;DHT22;5600;50.864;6.102;2022-12-16T03:00:56;-8.50;99.90
11093;DHT22;5600;50.864;6.102;2022-12-16T03:07:03;-8.50;99.90
11093;DHT22;5600;50.864;6.102;2022-12-16T03:10:11;-8.60;99.90
11093;DHT22;5600;50.864;6.102;2022-12-16T03:13:13;-8.60;99.90
11093;DHT22;5600;50.864;6.102;2022-12-16T03:16:20;-8.40;99.90
11093;DHT22;5600;50.864;6.102;2022-12-16T03:19:23;-8.60;99.90
11093;DHT22;5600;50.864;6.102;2022-12-16T03:22:27;-8.70;99.90
11093;DHT22;5600;50.864;6.102;2022-12-16T03:25:29;-8.70;99.90
11093;DHT22;5600;50.864;6.102;2022-12-16T03:28:47;-8.70;99.90
11093;DHT22;5600;50.864;6.102;2022-12-16T03:31:58;-8.80;99.90
11093;DHT22;5600;50.864;6.102;2022-12-16T03:38:25;-8.80;99.90
11093;DHT22;5600;50.864;6.102;2022-12-16T03:41:27;-8.70;99.90
11093;DHT22;5600;50.864;6.102;2022-12-16T03:44:29;-8.70;99.90
11093;DHT22;5600;50.864;6.102;2022-12-16T03:47:30;-8.80;99.90
11093;DHT22;5600;50.864;6.102;2022-12-16T03:50:33;-8.80;99.90
11093;DHT22;5600;50.864;6.102;2022-12-16T03:53:33;-8.80;99.90
11093;DHT22;5600;50.864;6.102;2022-12-16T03:56:34;-8.90;99.90
11093;DHT22;5600;50.864;6.102;2022-12-16T03:59:35;-8.90;99.90
11093;DHT22;5600;50.864;6.102;2022-12-16T04:02:35;-8.90;99.90
11093;DHT22;5600;50.864;6.102;2022-12-16T04:05:36;-8.90;99.90
11093;DHT22;5600;50.864;6.102;2022-12-16T04:08:36;-8.90;99.90
11093;DHT22;5600;50.864;6.102;2022-12-16T04:11:37;-8.90;99.90
11093;DHT22;5600;50.864;6.102;2022-12-16T04:14:56;-8.90;99.90
11093;DHT22;5600;50.864;6.102;2022-12-16T04:18:17;-8.90;99.90
11093;DHT22;5600;50.864;6.102;2022-12-16T04:21:37;-8.90;99.90
11093;DHT22;5600;50.864;6.102;2022-12-16T04:25:00;-8.90;99.90
11093;DHT22;5600;50.864;6.102;2022-12-16T04:28:02;-8.90;99.90
11093;DHT22;5600;50.864;6.102;2022-12-16T04:31:02;-8.80;99.90
11093;DHT22;5600;50.864;6.102;2022-12-16T04:34:03;-8.80;99.90
11093;DHT22;5600;50.864;6.102;2022-12-16T04:37:22;-8.70;99.90
11093;DHT22;5600;50.864;6.102;2022-12-16T04:40:41;-8.70;99.90
11093;DHT22;5600;50.864;6.102;2022-12-16T04:44:03;-8.60;99.90
11093;DHT22;5600;50.864;6.102;2022-12-16T04:47:22;-8.50;99.90
11093;DHT22;5600;50.864;6.102;2022-12-16T04:50:43;-8.50;99.90
11093;DHT22;5600;50.864;6.102;2022-12-16T04:54:03;-8.60;99.90
11093;DHT22;5600;50.864;6.102;2022-12-16T04:57:22;-8.60;99.90
11093;DHT22;5600;50.864;6.102;2022-12-16T05:00:42;-8.60;99.90
11093;DHT22;5600;50.864;6.102;2022-12-16T05:04:02;-8.70;99.90
11093;DHT22;5600;50.864;6.102;2022-12-16T05:07:21;-8.80;99.90
11093;DHT22;5600;50.864;6.102;2022-12-16T05:10:40;-8.80;99.90
11093;DHT22;5600;50.864;6.102;2022-12-16T05:17:20;-8.50;99.90
11093;DHT22;5600;50.864;6.102;2022-12-16T05:20:40;-8.50;99.90
11093;DHT22;5600;50.864;6.102;2022-12-16T05:23:59;-8.50;99.90
11093;DHT22;5600;50.864;6.102;2022-12-16T05:27:18;-8.60;99.90
11093;DHT22;5600;50.864;6.102;2022-12-16T05:30:38;-8.60;99.90
11093;DHT22;5600;50.864;6.102;2022-12-16T05:33:57;-8.70;99.90
11093;DHT22;5600;50.864;6.102;2022-12-16T05:37:16;-8.80;99.90
11093;DHT22;5600;50.864;6.102;2022-12-16T05:40:35;-8.80;99.90
11093;DHT22;5600;50.864;6.102;2022-12-16T05:43:55;-8.90;99.90
11093;DHT22;5600;50.864;6.102;2022-12-16T05:47:14;-8.90;99.90
11093;DHT22;5600;50.864;6.102;2022-12-16T05:50:33;-8.80;99.90
11093;DHT22;5600;50.864;6.102;2022-12-16T05:53:52;-8.90;99.90
11093;DHT22;5600;50.864;6.102;2022-12-16T05:57:11;-8.70;99.90
11093;DHT22;5600;50.864;6.102;2022-12-16T06:00:31;-8.60;99.90
11093;DHT22;5600;50.864;6.102;2022-12-16T06:03:50;-8.50;99.90
11093;DHT22;5600;50.864;6.102;2022-12-16T06:07:09;-8.50;99.90
11093;DHT22;5600;50.864;6.102;2022-12-16T06:10:28;-8.50;99.90
11093;DHT22;5600;50.864;6.102;2022-12-16T06:13:48;-8.50;99.90
11093;DHT22;5600;50.864;6.102;2022-12-16T06:17:07;-8.60;99.90
11093;DHT22;5600;50.864;6.102;2022-12-16T06:20:26;-8.60;99.90
11093;DHT22;5600;50.864;6.102;2022-12-16T06:23:46;-8.80;99.90
11093;DHT22;5600;50.864;6.102;2022-12-16T06:27:05;-8.90;99.90
11093;DHT22;5600;50.864;6.102;2022-12-16T06:30:24;-8.90;99.90
11093;DHT22;5600;50.864;6.102;2022-12-16T06:33:43;-9.30;99.90
11093;DHT22;5600;50.864;6.102;2022-12-16T06:37:03;-9.00;99.90
11093;DHT22;5600;50.864;6.102;2022-12-16T06:40:22;-9.00;99.90
11093;DHT22;5600;50.864;6.102;2022-12-16T06:43:41;-9.00;99.90
11093;DHT22;5600;50.864;6.102;2022-12-16T06:47:01;-8.90;99.90
11093;DHT22;5600;50.864;6.102;2022-12-16T06:50:20;-8.90;99.90
11093;DHT22;5600;50.864;6.102;2022-12-16T06:53:40;-8.90;99.90
11093;DHT22;5600;50.864;6.102;2022-12-16T06:56:59;-8.80;99.90
11093;DHT22;5600;50.864;6.102;2022-12-16T07:00:18;-8.70;99.90
11093;DHT22;5600;50.864;6.102;2022-12-16T07:03:38;-8.60;99.90
11093;DHT22;5600;50.864;6.102;2022-12-16T07:07:00;-8.50;99.90
11093;DHT22;5600;50.864;6.102;2022-12-16T07:10:20;-8.40;99.90
11093;DHT22;5600;50.864;6.102;2022-12-16T07:13:39;-8.20;99.90
11093;DHT22;5600;50.864;6.102;2022-12-16T07:16:58;-8.10;99.90
11093;DHT22;5600;50.864;6.102;2022-12-16T07:20:17;-8.00;99.90
11093;DHT22;5600;50.864;6.102;2022-12-16T07:23:37;-7.80;99.90
11093;DHT22;5600;50.864;6.102;2022-12-16T07:26:56;-7.70;99.90
11093;DHT22;5600;50.864;6.102;2022-12-16T07:30:16;-7.60;99.90
11093;DHT22;5600;50.864;6.102;2022-12-16T07:36:55;-7.30;99.90
11093;DHT22;5600;50.864;6.102;2022-12-16T07:40:15;-7.20;99.90
11093;DHT22;5600;50.864;6.102;2022-12-16T07:46:54;-6.90;99.90
11093;DHT22;5600;50.864;6.102;2022-12-16T07:50:13;-6.60;99.90
11093;DHT22;5600;50.864;6.102;2022-12-16T07:53:33;-6.50;99.90
11093;DHT22;5600;50.864;6.102;2022-12-16T07:56:52;-6.30;99.90
11093;DHT22;5600;50.864;6.102;2022-12-16T08:00:12;-6.10;99.90
11093;DHT22;5600;50.864;6.102;2022-12-16T08:03:31;-5.90;99.90
11093;DHT22;5600;50.864;6.102;2022-12-16T08:06:51;-5.80;99.90
11093;DHT22;5600;50.864;6.102;2022-12-16T08:10:10;-5.70;99.90
11093;DHT22;5600;50.864;6.102;2022-12-16T08:13:29;-5.50;99.90
11093;DHT22;5600;50.864;6.102;2022-12-16T08:16:49;-5.40;99.90
11093;DHT22;5600;50.864;6.102;2022-12-16T08:20:09;-5.30;99.90
11093;DHT22;5600;50.864;6.102;2022-12-16T08:23:28;-5.20;99.90
11093;DHT22;5600;50.864;6.102;2022-12-16T08:26:48;-5.00;99.90
11093;DHT22;5600;50.864;6.102;2022-12-16T08:30:08;-4.70;99.90
11093;DHT22;5600;50.864;6.102;2022-12-16T08:33:27;-4.60;99.90
11093;DHT22;5600;50.864;6.102;2022-12-16T08:36:47;-4.50;99.90
11093;DHT22;5600;50.864;6.102;2022-12-16T08:40:06;-4.40;99.90
11093;DHT22;5600;50.864;6.102;2022-12-16T08:43:26;-4.30;99.90
11093;DHT22;5600;50.864;6.102;2022-12-16T08:46:45;-4.20;99.90
11093;DHT22;5600;50.864;6.102;2022-12-16T08:50:05;-4.10;99.90
11093;DHT22;5600;50.864;6.102;2022-12-16T08:53:25;-4.00;99.90
11093;DHT22;5600;50.864;6.102;2022-12-16T09:00:05;-3.70;99.90
11093;DHT22;5600;50.864;6.102;2022-12-16T09:03:25;-3.60;99.90
11093;DHT22;5600;50.864;6.102;2022-12-16T09:06:44;-3.50;99.90
11093;DHT22;5600;50.864;6.102;2022-12-16T09:10:05;-3.40;99.90
11093;DHT22;5600;50.864;6.102;2022-12-16T09:13:24;-3.20;99.90
11093;DHT22;5600;50.864;6.102;2022-12-16T09:16:43;-3.10;99.90
11093;DHT22;5600;50.864;6.102;2022-12-16T09:20:02;-3.10;99.90
11093;DHT22;5600;50.864;6.102;2022-12-16T09:23:22;-2.90;99.90
11093;DHT22;5600;50.864;6.102;2022-12-16T09:26:41;-2.80;99.90
11093;DHT22;5600;50.864;6.102;2022-12-16T09:30:02;-2.70;99.90
11093;DHT22;5600;50.864;6.102;2022-12-16T09:33:21;-2.50;99.90
11093;DHT22;5600;50.864;6.102;2022-12-16T09:36:41;-2.50;99.90
11093;DHT22;5600;50.864;6.102;2022-12-16T09:40:02;-2.20;99.90
11093;DHT22;5600;50.864;6.102;2022-12-16T09:51:04;-1.90;99.90
11093;DHT22;5600;50.864;6.102;2022-12-16T09:54:28;-1.80;99.90
11093;DHT22;5600;50.864;6.102;2022-12-16T09:57:50;-1.80;99.90
11093;DHT22;5600;50.864;6.102;2022-12-16T10:01:13;-1.90;99.90
11093;DHT22;5600;50.864;6.102;2022-12-16T10:04:50;-1.90;99.90
11093;DHT22;5600;50.864;6.102;2022-12-16T10:08:37;-1.90;99.90
11093;DHT22;5600;50.864;6.102;2022-12-16T10:12:16;-1.90;99.90
11093;DHT22;5600;50.864;6.102;2022-12-16T10:26:12;-1.60;99.90
11093;DHT22;5600;50.864;6.102;2022-12-16T10:29:38;-1.60;99.90
11093;DHT22;5600;50.864;6.102;2022-12-16T10:33:00;-1.50;99.90
11093;DHT22;5600;50.864;6.102;2022-12-16T10:36:21;-1.50;99.90
11093;DHT22;5600;50.864;6.102;2022-12-16T10:39:48;-1.40;99.90
11093;DHT22;5600;50.864;6.102;2022-12-16T10:43:35;-1.20;99.90
11093;DHT22;5600;50.864;6.102;2022-12-16T10:46:56;-1.10;99.90
11093;DHT22;5600;50.864;6.102;2022-12-16T10:50:15;-1.00;99.90
11093;DHT22;5600;50.864;6.102;2022-12-16T10:53:38;-0.70;99.90
11093;DHT22;5600;50.864;6.102;2022-12-16T10:57:09;-0.80;99.90
11093;DHT22;5600;50.864;6.102;2022-12-16T11:00:40;-0.80;99.90
11093;DHT22;5600;50.864;6.102;2022-12-16T11:03:59;-0.70;99.90
11093;DHT22;5600;50.864;6.102;2022-12-16T11:07:49;-0.60;99.90
11093;DHT22;5600;50.864;6.102;2022-12-16T11:11:25;-0.50;99.90
11093;DHT22;5600;50.864;6.102;2022-12-16T11:14:51;-0.50;99.90
11093;DHT22;5600;50.864;6.102;2022-12-16T11:18:17;-0.50;99.90
11093;DHT22;5600;50.864;6.102;2022-12-16T11:21:37;-0.60;99.90
11093;DHT22;5600;50.864;6.102;2022-12-16T11:25:13;-0.50;99.90
11093;DHT22;5600;50.864;6.102;2022-12-16T11:28:33;-0.50;99.90
11093;DHT22;5600;50.864;6.102;2022-12-16T11:35:26;-0.40;99.90
11093;DHT22;5600;50.864;6.102;2022-12-16T11:38:48;0.10;99.90
11093;DHT22;5600;50.864;6.102;2022-12-16T11:42:15;-0.40;99.90
11093;DHT22;5600;50.864;6.102;2022-12-16T11:45:37;-0.30;99.90
11093;DHT22;5600;50.864;6.102;2022-12-16T11:48:59;-0.30;99.90
11093;DHT22;5600;50.864;6.102;2022-12-16T11:52:20;-0.30;99.90
11093;DHT22;5600;50.864;6.102;2022-12-16T11:55:42;-0.30;99.90
11093;DHT22;5600;50.864;6.102;2022-12-16T11:59:08;-0.20;99.90
11093;DHT22;5600;50.864;6.102;2022-12-16T12:02:36;-1.70;99.90
11093;DHT22;5600;50.864;6.102;2022-12-16T12:06:07;-0.10;99.90
11093;DHT22;5600;50.864;6.102;2022-12-16T12:09:33;-0.10;99.90
11093;DHT22;5600;50.864;6.102;2022-12-16T12:13:03;-0.20;99.90
11093;DHT22;5600;50.864;6.102;2022-12-16T12:16:45;-0.20;99.90
11093;DHT22;5600;50.864;6.102;2022-12-16T12:27:37;-0.10;99.90
11093;DHT22;5600;50.864;6.102;2022-12-16T12:38:27;-0.10;99.90
11093;DHT22;5600;50.864;6.102;2022-12-16T12:42:02;0.20;99.90
11093;DHT22;5600;50.864;6.102;2022-12-16T12:49:00;0.20;99.90
11093;DHT22;5600;50.864;6.102;2022-12-16T12:52:55;0.30;99.90
11093;DHT22;5600;50.864;6.102;2022-12-16T12:56:28;0.30;99.90
11093;DHT22;5600;50.864;6.102;2022-12-16T13:00:03;0.40;99.90
11093;DHT22;5600;50.864;6.102;2022-12-16T13:03:31;0.40;99.90
11093;DHT22;5600;50.864;6.102;2022-12-16T13:06:53;0.40;99.90
11093;DHT22;5600;50.864;6.102;2022-12-16T13:13:38;0.40;99.90
11093;DHT22;5600;50.864;6.102;2022-12-16T13:16:57;0.50;99.90
11093;DHT22;5600;50.864;6.102;2022-12-16T13:20:35;0.50;99.90
11093;DHT22;5600;50.864;6.102;2022-12-16T13:23:55;0.40;99.90
11093;DHT22;5600;50.864;6.102;2022-12-16T13:27:15;0.40;99.90
11093;DHT22;5600;50.864;6.102;2022-12-16T13:30:35;0.40;99.90
11093;DHT22;5600;50.864;6.102;2022-12-16T13:34:03;0.50;99.90
11093;DHT22;5600;50.864;6.102;2022-12-16T13:37:24;0.50;99.90
11093;DHT22;5600;50.864;6.102;2022-12-16T13:41:06;0.50;99.90
11093;DHT22;5600;50.864;6.102;2022-12-16T13:48:04;0.40;99.90
11093;DHT22;5600;50.864;6.102;2022-12-16T13:55:02;0.60;99.90
11093;DHT22;5600;50.864;6.102;2022-12-16T13:58:37;0.60;99.90
11093;DHT22;5600;50.864;6.102;2022-12-16T14:02:02;0.60;99.90
11093;DHT22;5600;50.864;6.102;2022-12-16T14:05:35;0.60;99.90
11093;DHT22;5600;50.864;6.102;2022-12-16T14:08:55;0.60;99.90
11093;DHT22;5600;50.864;6.102;2022-12-16T14:19:34;0.60;99.90
11093;DHT22;5600;50.864;6.102;2022-12-16T14:26:37;0.50;99.90
11093;DHT22;5600;50.864;6.102;2022-12-16T14:29:56;0.50;99.90
11093;DHT22;5600;50.864;6.102;2022-12-16T14:33:27;0.60;99.90
11093;DHT22;5600;50.864;6.102;2022-12-16T14:36:47;0.50;99.90
11093;DHT22;5600;50.864;6.102;2022-12-16T14:40:27;0.50;99.90
11093;DHT22;5600;50.864;6.102;2022-12-16T14:43:47;0.40;99.90
11093;DHT22;5600;50.864;6.102;2022-12-16T14:47:18;0.40;99.90
11093;DHT22;5600;50.864;6.102;2022-12-16T14:50:38;0.30;99.90
11093;DHT22;5600;50.864;6.102;2022-12-16T14:54:15;0.40;99.90
11093;DHT22;5600;50.864;6.102;2022-12-16T14:57:35;0.30;99.90
11093;DHT22;5600;50.864;6.102;2022-12-16T15:00:57;0.30;99.90
11093;DHT22;5600;50.864;6.102;2022-12-16T15:04:18;0.30;99.90
11093;DHT22;5600;50.864;6.102;2022-12-16T15:07:38;0.20;99.90
11093;DHT22;5600;50.864;6.102;2022-12-16T15:10:58;0.20;99.90
11093;DHT22;5600;50.864;6.102;2022-12-16T15:14:24;0.20;99.90
11093;DHT22;5600;50.864;6.102;2022-12-16T15:21:07;0.10;99.90
11093;DHT22;5600;50.864;6.102;2022-12-16T15:24:27;0.20;99.90
11093;DHT22;5600;50.864;6.102;2022-12-16T15:27:55;0.20;99.90
11093;DHT22;5600;50.864;6.102;2022-12-16T15:31:26;0.30;99.90
11093;DHT22;5600;50.864;6.102;2022-12-16T15:34:48;0.20;99.90
11093;DHT22;5600;50.864;6.102;2022-12-16T15:41:36;0.20;99.90
11093;DHT22;5600;50.864;6.102;2022-12-16T15:44:55;0.10;99.90
11093;DHT22;5600;50.864;6.102;2022-12-16T15:48:24;0.10;99.90
11093;DHT22;5600;50.864;6.102;2022-12-16T15:51:46;0.10;99.90
11093;DHT22;5600;50.864;6.102;2022-12-16T15:58:40;0.00;99.90
11093;DHT22;5600;50.864;6.102;2022-12-16T16:02:05;0.00;99.90
11093;DHT22;5600;50.864;6.102;2022-12-16T16:05:25;-0.10;99.90
11093;DHT22;5600;50.864;6.102;2022-12-16T16:08:49;-0.20;99.90
11093;DHT22;5600;50.864;6.102;2022-12-16T16:12:10;-0.20;99.90
11093;DHT22;5600;50.864;6.102;2022-12-16T16:15:30;-0.20;99.90
11093;DHT22;5600;50.864;6.102;2022-12-16T16:18:49;-0.20;99.90
11093;DHT22;5600;50.864;6.102;2022-12-16T16:22:15;0.60;99.90
11093;DHT22;5600;50.864;6.102;2022-12-16T16:25:34;-0.30;99.90
11093;DHT22;5600;50.864;6.102;2022-12-16T16:28:54;-0.30;99.90
11093;DHT22;5600;50.864;6.102;2022-12-16T16:32:13;-0.30;99.90
11093;DHT22;5600;50.864;6.102;2022-12-16T16:35:32;-0.30;99.90
11093;DHT22;5600;50.864;6.102;2022-12-16T16:38:52;-0.30;99.90
11093;DHT22;5600;50.864;6.102;2022-12-16T16:42:11;-0.20;99.90
11093;DHT22;5600;50.864;6.102;2022-12-16T16:45:31;-0.30;99.90
11093;DHT22;5600;50.864;6.102;2022-12-16T16:48:50;-0.30;99.90
11093;DHT22;5600;50.864;6.102;2022-12-16T16:52:12;-0.30;99.90
11093;DHT22;5600;50.864;6.102;2022-12-16T16:55:32;-0.40;99.90
11093;DHT22;5600;50.864;6.102;2022-12-16T16:58:51;-0.40;99.90
11093;DHT22;5600;50.864;6.102;2022-12-16T17:02:22;-0.40;99.90
11093;DHT22;5600;50.864;6.102;2022-12-16T17:05:41;-0.40;99.90
11093;DHT22;5600;50.864;6.102;2022-12-16T17:09:02;-0.40;99.90
11093;DHT22;5600;50.864;6.102;2022-12-16T17:12:26;-0.40;99.90
11093;DHT22;5600;50.864;6.102;2022-12-16T17:15:46;-0.40;99.90
11093;DHT22;5600;50.864;6.102;2022-12-16T17:19:05;-0.40;99.90
11093;DHT22;5600;50.864;6.102;2022-12-16T17:22:25;-0.40;99.90
11093;DHT22;5600;50.864;6.102;2022-12-16T17:25:55;-0.30;99.90
11093;DHT22;5600;50.864;6.102;2022-12-16T17:29:18;-0.40;99.90
11093;DHT22;5600;50.864;6.102;2022-12-16T17:32:37;-0.40;99.90
11093;DHT22;5600;50.864;6.102;2022-12-16T17:35:57;-0.40;99.90
11093;DHT22;5600;50.864;6.102;2022-12-16T17:39:16;-0.40;99.90
11093;DHT22;5600;50.864;6.102;2022-12-16T17:42:35;-0.40;99.90
11093;DHT22;5600;50.864;6.102;2022-12-16T17:46:03;-0.40;99.90
11093;DHT22;5600;50.864;6.102;2022-12-16T17:49:23;-0.30;99.90
11093;DHT22;5600;50.864;6.102;2022-12-16T17:52:44;-0.30;99.90
11093;DHT22;5600;50.864;6.102;2022-12-16T17:56:04;-0.30;99.90
11093;DHT22;5600;50.864;6.102;2022-12-16T17:59:23;-0.40;99.90
11093;DHT22;5600;50.864;6.102;2022-12-16T18:02:43;-0.30;99.90
11093;DHT22;5600;50.864;6.102;2022-12-16T18:06:02;-0.40;99.90
11093;DHT22;5600;50.864;6.102;2022-12-16T18:09:22;-0.50;99.90
11093;DHT22;5600;50.864;6.102;2022-12-16T18:12:41;-0.50;99.90
11093;DHT22;5600;50.864;6.102;2022-12-16T18:16:01;-0.50;99.90
11093;DHT22;5600;50.864;6.102;2022-12-16T18:19:20;-0.40;99.90
11093;DHT22;5600;50.864;6.102;2022-12-16T18:22:40;-0.40;99.90
11093;DHT22;5600;50.864;6.102;2022-12-16T18:26:04;-0.40;99.90
11093;DHT22;5600;50.864;6.102;2022-12-16T18:29:24;-0.30;99.90
11093;DHT22;5600;50.864;6.102;2022-12-16T18:32:43;-0.20;99.90
11093;DHT22;5600;50.864;6.102;2022-12-16T18:36:22;-0.10;99.90
11093;DHT22;5600;50.864;6.102;2022-12-16T18:39:42;-0.20;99.90
11093;DHT22;5600;50.864;6.102;2022-12-16T18:43:01;-0.30;99.90
11093;DHT22;5600;50.864;6.102;2022-12-16T18:46:31;-0.30;99.90
11093;DHT22;5600;50.864;6.102;2022-12-16T18:49:52;-0.40;99.90
11093;DHT22;5600;50.864;6.102;2022-12-16T18:53:12;-0.40;99.90
11093;DHT22;5600;50.864;6.102;2022-12-16T18:56:31;-0.40;99.90
11093;DHT22;5600;50.864;6.102;2022-12-16T18:59:51;-0.50;99.90
11093;DHT22;5600;50.864;6.102;2022-12-16T19:03:10;-0.50;99.90
11093;DHT22;5600;50.864;6.102;2022-12-16T19:06:30;-0.50;99.90
11093;DHT22;5600;50.864;6.102;2022-12-16T19:09:49;-0.50;99.90
11093;DHT22;5600;50.864;6.102;2022-12-16T19:13:12;-0.50;99.90
11093;DHT22;5600;50.864;6.102;2022-12-16T19:16:31;-0.50;99.90
11093;DHT22;5600;50.864;6.102;2022-12-16T19:19:51;-0.40;99.90
11093;DHT22;5600;50.864;6.102;2022-12-16T19:23:13;-0.40;99.90
11093;DHT22;5600;50.864;6.102;2022-12-16T19:26:32;-0.30;99.90
11093;DHT22;5600;50.864;6.102;2022-12-16T19:29:51;-0.30;99.90
11093;DHT22;5600;50.864;6.102;2022-12-16T19:33:11;-0.30;99.90
11093;DHT22;5600;50.864;6.102;2022-12-16T19:36:30;-0.40;99.90
11093;DHT22;5600;50.864;6.102;2022-12-16T19:39:50;-0.40;99.90
11093;DHT22;5600;50.864;6.102;2022-12-16T19:43:09;-0.50;99.90
11093;DHT22;5600;50.864;6.102;2022-12-16T19:46:29;-0.50;99.90
11093;DHT22;5600;50.864;6.102;2022-12-16T19:49:48;-0.30;99.90
11093;DHT22;5600;50.864;6.102;2022-12-16T19:53:07;-0.30;99.90
11093;DHT22;5600;50.864;6.102;2022-12-16T19:56:27;-0.40;99.90
11093;DHT22;5600;50.864;6.102;2022-12-16T19:59:46;-0.30;99.90
11093;DHT22;5600;50.864;6.102;2022-12-16T20:03:15;-0.40;99.90
11093;DHT22;5600;50.864;6.102;2022-12-16T20:06:34;-0.50;99.90
11093;DHT22;5600;50.864;6.102;2022-12-16T20:09:54;-0.50;99.90
11093;DHT22;5600;50.864;6.102;2022-12-16T20:13:13;-0.40;99.90
11093;DHT22;5600;50.864;6.102;2022-12-16T20:16:32;-0.40;99.90
11093;DHT22;5600;50.864;6.102;2022-12-16T20:19:52;-0.40;99.90
11093;DHT22;5600;50.864;6.102;2022-12-16T20:23:11;-0.30;99.90
11093;DHT22;5600;50.864;6.102;2022-12-16T20:26:31;-0.30;99.90
11093;DHT22;5600;50.864;6.102;2022-12-16T20:29:50;-0.10;99.90
11093;DHT22;5600;50.864;6.102;2022-12-16T20:33:13;-0.20;99.90
11093;DHT22;5600;50.864;6.102;2022-12-16T20:36:33;-0.20;99.90
11093;DHT22;5600;50.864;6.102;2022-12-16T20:39:53;-0.30;99.90
11093;DHT22;5600;50.864;6.102;2022-12-16T20:43:32;-0.30;99.90
11093;DHT22;5600;50.864;6.102;2022-12-16T20:46:51;-0.40;99.90
11093;DHT22;5600;50.864;6.102;2022-12-16T20:50:10;-0.40;99.90
11093;DHT22;5600;50.864;6.102;2022-12-16T20:53:30;-0.40;99.90
11093;DHT22;5600;50.864;6.102;2022-12-16T20:56:49;-0.40;99.90
11093;DHT22;5600;50.864;6.102;2022-12-16T21:00:09;-0.40;99.90
11093;DHT22;5600;50.864;6.102;2022-12-16T21:03:28;-0.40;99.90
11093;DHT22;5600;50.864;6.102;2022-12-16T21:06:48;-0.40;99.90
11093;DHT22;5600;50.864;6.102;2022-12-16T21:10:07;-0.40;99.90
11093;DHT22;5600;50.864;6.102;2022-12-16T21:13:26;-0.50;99.90
11093;DHT22;5600;50.864;6.102;2022-12-16T21:16:45;-0.50;99.90
11093;DHT22;5600;50.864;6.102;2022-12-16T21:20:05;-0.40;99.90
11093;DHT22;5600;50.864;6.102;2022-12-16T21:23:25;-0.40;99.90
11093;DHT22;5600;50.864;6.102;2022-12-16T21:26:44;-0.40;99.90
11093;DHT22;5600;50.864;6.102;2022-12-16T21:30:04;-0.40;99.90
11093;DHT22;5600;50.864;6.102;2022-12-16T21:33:23;-0.40;99.90
11093;DHT22;5600;50.864;6.102;2022-12-16T21:36:42;-0.40;99.90
11093;DHT22;5600;50.864;6.102;2022-12-16T21:40:02;-0.30;99.90
11093;DHT22;5600;50.864;6.102;2022-12-16T21:43:21;-0.40;99.90
11093;DHT22;5600;50.864;6.102;2022-12-16T21:46:40;-0.40;99.90
11093;DHT22;5600;50.864;6.102;2022-12-16T21:50:00;-0.50;99.90
11093;DHT22;5600;50.864;6.102;2022-12-16T21:53:19;-0.50;99.90
11093;DHT22;5600;50.864;6.102;2022-12-16T21:56:39;-0.40;99.90
11093;DHT22;5600;50.864;6.102;2022-12-16T21:59:58;-0.40;99.90
11093;DHT22;5600;50.864;6.102;2022-12-16T22:03:18;-0.40;99.90
11093;DHT22;5600;50.864;6.102;2022-12-16T22:06:37;-0.30;99.90
11093;DHT22;5600;50.864;6.102;2022-12-16T22:09:56;-0.30;99.90
11093;DHT22;5600;50.864;6.102;2022-12-16T22:13:16;-0.30;99.90
11093;DHT22;5600;50.864;6.102;2022-12-16T22:16:35;-0.30;99.90
11093;DHT22;5600;50.864;6.102;2022-12-16T22:19:55;-0.30;99.90
11093;DHT22;5600;50.864;6.102;2022-12-16T22:23:14;-0.30;99.90
11093;DHT22;5600;50.864;6.102;2022-12-16T22:26:34;-0.30;99.90
11093;DHT22;5600;50.864;6.102;2022-12-16T22:29:53;-0.40;99.90
11093;DHT22;5600;50.864;6.102;2022-12-16T22:33:12;-0.40;99.90
11093;DHT22;5600;50.864;6.102;2022-12-16T22:36:32;-0.40;99.90
11093;DHT22;5600;50.864;6.102;2022-12-16T22:39:51;-0.20;99.90
11093;DHT22;5600;50.864;6.102;2022-12-16T22:43:11;-0.20;99.90
11093;DHT22;5600;50.864;6.102;2022-12-16T22:46:30;-0.30;99.90
11093;DHT22;5600;50.864;6.102;2022-12-16T22:49:50;-0.30;99.90
11093;DHT22;5600;50.864;6.102;2022-12-16T22:53:12;-0.30;99.90
11093;DHT22;5600;50.864;6.102;2022-12-16T22:56:31;-0.40;99.90
11093;DHT22;5600;50.864;6.102;2022-12-16T22:59:51;-0.40;99.90
11093;DHT22;5600;50.864;6.102;2022-12-16T23:03:14;-0.40;99.90
11093;DHT22;5600;50.864;6.102;2022-12-16T23:06:34;-0.50;99.90
11093;DHT22;5600;50.864;6.102;2022-12-16T23:09:53;-0.40;99.90